Time;durP1;ratioP1;P1;durP2;ratioP2;P2;SDS_P1;SDS_P2;PMS_P1;PMS_P2;Temp;Humidity;BMP_temperature;BMP_pressure;BME280_temperature;BME280_humidity;BME280_pressure;Samples;Min_cycle;Max_cycle;Signal;HPM_P1;HPM_P2
2022/11/30 00:00:52;;;;;;;35.80;20.88;;;6.30;99.90;;;;;;5094231;28;20158;-65
2022/11/30 00:03:19;;;;;;;33.65;22.80;;;6.20;99.90;;;;;;5093986;28;20044;-64
2022/11/30 00:05:46;;;;;;;33.55;21.23;;;6.20;99.90;;;;;;5094667;28;20044;-65
2022/11/30 00:08:13;;;;;;;34.10;22.00;;;6.10;99.90;;;;;;5094302;28;20044;-65
2022/11/30 00:10:40;;;;;;;36.53;22.55;;;6.00;99.90;;;;;;5094912;28;20098;-64
2022/11/30 00:13:08;;;;;;;37.45;23.40;;;5.90;99.90;;;;;;5094962;28;20392;-64
2022/11/30 00:15:37;;;;;;;34.58;21.27;;;5.90;99.90;;;;;;5093886;28;20055;-65
2022/11/30 00:18:04;;;;;;;36.13;22.90;;;5.90;99.90;;;;;;5093257;28;20044;-65
2022/11/30 00:20:31;;;;;;;39.03;22.92;;;5.90;99.90;;;;;;5091701;28;20047;-65
2022/11/30 00:22:58;;;;;;;40.05;24.80;;;5.90;99.90;;;;;;5093835;28;20466;-65
2022/11/30 00:25:25;;;;;;;36.38;21.88;;;5.90;99.90;;;;;;5093361;28;20090;-65
2022/11/30 00:27:52;;;;;;;33.30;22.10;;;5.80;99.90;;;;;;5095091;28;20086;-65
2022/11/30 00:30:19;;;;;;;33.78;22.13;;;5.80;99.90;;;;;;5094852;28;20052;-65
2022/11/30 00:32:47;;;;;;;38.03;23.08;;;5.70;99.90;;;;;;5093928;28;20376;-64
2022/11/30 00:35:16;;;;;;;41.95;24.13;;;5.60;99.90;;;;;;5093869;28;20438;-64
2022/11/30 00:37:43;;;;;;;35.00;21.23;;;5.60;99.90;;;;;;5091369;28;20044;-64
2022/11/30 00:40:11;;;;;;;39.47;22.83;;;5.50;99.90;;;;;;5093112;28;20491;-65
2022/11/30 00:42:38;;;;;;;44.42;24.90;;;5.40;99.90;;;;;;5093019;28;20052;-64
2022/11/30 00:45:06;;;;;;;38.65;22.92;;;5.30;99.90;;;;;;5093132;28;20500;-64
2022/11/30 00:47:33;;;;;;;37.40;22.05;;;5.30;99.90;;;;;;5092454;28;20044;-64
2022/11/30 00:50:01;;;;;;;37.90;21.10;;;5.20;99.90;;;;;;5093314;28;20056;-65
2022/11/30 00:52:29;;;;;;;36.25;23.70;;;5.20;99.90;;;;;;5094098;28;20491;-65
2022/11/30 00:54:56;;;;;;;37.28;21.38;;;5.10;99.90;;;;;;5092897;28;20109;-65
2022/11/30 00:57:23;;;;;;;35.00;23.00;;;5.10;99.90;;;;;;5093050;28;20047;-65
2022/11/30 00:59:49;;;;;;;40.15;22.27;;;5.00;99.90;;;;;;5094425;28;20576;-65
2022/11/30 01:02:16;;;;;;;38.67;23.77;;;5.00;99.90;;;;;;5092633;28;20044;-65
2022/11/30 01:04:43;;;;;;;45.03;23.75;;;5.10;99.90;;;;;;5093186;28;20074;-65
2022/11/30 01:07:11;;;;;;;36.17;22.38;;;5.20;99.90;;;;;;5092677;28;20043;-65
2022/11/30 01:09:38;;;;;;;39.58;23.27;;;5.20;99.90;;;;;;5093001;28;20108;-65
2022/11/30 01:12:05;;;;;;;36.80;23.27;;;5.30;99.90;;;;;;5092925;28;20044;-65
2022/11/30 01:14:32;;;;;;;37.97;25.55;;;5.40;99.90;;;;;;5092343;28;20071;-64
2022/11/30 01:16:59;;;;;;;41.08;27.45;;;5.40;99.90;;;;;;5092595;28;20499;-65
2022/11/30 01:19:26;;;;;;;51.67;30.85;;;5.50;99.90;;;;;;5094167;28;20051;-64
2022/11/30 01:21:53;;;;;;;45.22;31.92;;;5.60;99.90;;;;;;5092987;28;20059;-65
2022/11/30 01:24:21;;;;;;;47.38;31.92;;;5.60;99.90;;;;;;5092592;28;20052;-65
2022/11/30 01:26:48;;;;;;;58.88;36.53;;;5.70;99.90;;;;;;5092078;28;20124;-65
2022/11/30 01:29:15;;;;;;;62.40;41.42;;;5.70;99.90;;;;;;5092206;28;20044;-65
2022/11/30 01:31:41;;;;;;;61.13;38.92;;;5.70;99.90;;;;;;5092498;28;20052;-65
2022/11/30 01:34:08;;;;;;;53.42;35.05;;;5.80;99.90;;;;;;5092428;28;20051;-65
2022/11/30 01:36:37;;;;;;;54.42;35.65;;;5.80;99.90;;;;;;5091990;28;20128;-64
2022/11/30 01:39:07;;;;;;;63.05;39.33;;;5.90;99.90;;;;;;5092045;28;20047;-64
2022/11/30 01:41:37;;;;;;;49.38;32.22;;;6.00;99.90;;;;;;5093393;28;20048;-64
2022/11/30 01:44:41;;;;;;;47.28;31.50;;;6.00;99.90;;;;;;5091486;28;20454;-64
2022/11/30 01:47:11;;;;;;;43.92;31.08;;;6.00;99.90;;;;;;5091778;28;20047;-65
2022/11/30 01:49:41;;;;;;;44.30;29.00;;;6.10;99.90;;;;;;5091488;28;20446;-64
2022/11/30 01:52:11;;;;;;;43.47;29.92;;;6.10;99.90;;;;;;5091971;28;20048;-65
2022/11/30 01:54:43;;;;;;;46.28;29.65;;;6.10;99.90;;;;;;5093269;28;20483;-65
2022/11/30 01:57:18;;;;;;;49.38;30.98;;;6.10;99.90;;;;;;5091545;28;20048;-65
2022/11/30 01:59:46;;;;;;;51.15;31.33;;;6.10;99.90;;;;;;5091323;28;20124;-65
2022/11/30 02:02:13;;;;;;;46.90;28.38;;;6.10;99.90;;;;;;5093034;28;20048;-65
2022/11/30 02:04:40;;;;;;;45.35;29.13;;;6.10;99.90;;;;;;5092646;28;20044;-64
2022/11/30 02:07:08;;;;;;;39.90;25.77;;;6.20;99.90;;;;;;5091945;28;20048;-65
2022/11/30 02:09:41;;;;;;;43.05;27.23;;;6.20;99.90;;;;;;5093093;28;20051;-65
2022/11/30 02:12:19;;;;;;;45.05;28.77;;;6.20;99.90;;;;;;5092581;28;20048;-65
2022/11/30 02:14:50;;;;;;;42.90;28.10;;;6.20;99.90;;;;;;5090940;28;20117;-65
2022/11/30 02:17:24;;;;;;;39.83;27.30;;;6.30;99.90;;;;;;5092167;28;20044;-65
2022/11/30 02:20:19;;;;;;;47.88;29.23;;;6.20;99.90;;;;;;5091479;28;20044;-65
2022/11/30 02:22:59;;;;;;;39.33;24.58;;;6.20;99.90;;;;;;5051519;28;20391;-65
2022/11/30 02:25:32;;;;;;;38.88;23.65;;;6.30;99.90;;;;;;5088803;28;20097;-65
2022/11/30 02:28:20;;;;;;;38.25;22.75;;;6.30;99.90;;;;;;5091991;28;20588;-65
2022/11/30 02:30:52;;;;;;;36.03;23.70;;;6.30;99.90;;;;;;5092727;28;20048;-65
2022/11/30 02:33:23;;;;;;;43.92;24.10;;;6.30;99.90;;;;;;5091736;28;20417;-65
2022/11/30 02:35:53;;;;;;;36.13;22.38;;;6.20;99.90;;;;;;5091393;28;20052;-65
2022/11/30 02:38:22;;;;;;;43.13;25.17;;;6.20;99.90;;;;;;5092567;28;20040;-65
2022/11/30 02:40:48;;;;;;;38.40;23.10;;;6.30;99.90;;;;;;5092392;28;20274;-65
2022/11/30 02:43:17;;;;;;;33.05;21.92;;;6.20;99.90;;;;;;5090881;28;20055;-65
2022/11/30 02:45:50;;;;;;;37.58;22.48;;;6.20;99.90;;;;;;5089627;28;20044;-65
2022/11/30 02:48:23;;;;;;;34.13;21.50;;;6.20;99.90;;;;;;5091291;28;20048;-65
2022/11/30 02:50:56;;;;;;;38.22;21.88;;;6.20;99.90;;;;;;5092159;28;20496;-64
2022/11/30 02:53:23;;;;;;;39.78;23.10;;;6.20;99.90;;;;;;5091625;28;20048;-64
2022/11/30 02:55:50;;;;;;;39.75;22.63;;;6.20;99.90;;;;;;5090582;28;20044;-65
2022/11/30 02:58:18;;;;;;;38.22;22.92;;;6.20;99.90;;;;;;5090635;28;20048;-63
2022/11/30 03:00:45;;;;;;;38.75;23.55;;;6.20;99.90;;;;;;5089697;28;20048;-66
2022/11/30 03:03:12;;;;;;;36.58;21.33;;;6.20;99.90;;;;;;5090876;28;20113;-65
2022/11/30 03:05:40;;;;;;;36.38;22.80;;;6.20;99.90;;;;;;5090891;28;20101;-63
2022/11/30 03:08:07;;;;;;;43.28;24.80;;;6.20;99.90;;;;;;5091528;28;20044;-65
2022/11/30 03:10:34;;;;;;;34.42;21.42;;;6.20;99.90;;;;;;5091654;28;20048;-64
2022/11/30 03:13:01;;;;;;;39.33;22.70;;;6.20;99.90;;;;;;5090468;28;20040;-64
2022/11/30 03:15:28;;;;;;;31.83;20.58;;;6.20;99.90;;;;;;5089830;28;20500;-65
2022/11/30 03:17:55;;;;;;;34.35;21.70;;;6.20;99.90;;;;;;5090734;28;20092;-65
2022/11/30 03:20:21;;;;;;;39.15;22.10;;;6.20;99.90;;;;;;5092269;28;20048;-65
2022/11/30 03:22:50;;;;;;;36.30;23.30;;;6.20;99.90;;;;;;5091091;28;20047;-64
2022/11/30 03:25:17;;;;;;;33.85;21.17;;;6.20;99.90;;;;;;5090681;28;20488;-64
2022/11/30 03:27:44;;;;;;;36.00;22.10;;;6.20;99.90;;;;;;5089835;28;20131;-64
2022/11/30 03:30:12;;;;;;;37.75;23.60;;;6.20;99.90;;;;;;5091779;28;20040;-65
2022/11/30 03:32:38;;;;;;;37.00;21.92;;;6.20;99.90;;;;;;5089654;28;20051;-65
2022/11/30 03:35:06;;;;;;;33.78;21.35;;;6.20;99.90;;;;;;5089818;28;20056;-64
2022/11/30 03:37:33;;;;;;;41.40;21.77;;;6.30;99.90;;;;;;5090665;28;20113;-64
2022/11/30 03:40:01;;;;;;;33.90;21.35;;;6.30;99.90;;;;;;5090235;28;20479;-65
2022/11/30 03:42:28;;;;;;;37.35;23.33;;;6.30;99.90;;;;;;5089820;28;20047;-65
2022/11/30 03:44:55;;;;;;;35.42;21.55;;;6.30;99.90;;;;;;5077215;28;20071;-64
2022/11/30 03:47:22;;;;;;;37.20;22.40;;;6.30;99.90;;;;;;5074612;28;20094;-65
2022/11/30 03:49:49;;;;;;;38.10;22.88;;;6.30;99.90;;;;;;5078772;28;20048;-65
2022/11/30 03:52:15;;;;;;;35.05;20.95;;;6.30;99.90;;;;;;5081617;28;20052;-65
2022/11/30 03:54:42;;;;;;;34.58;20.50;;;6.40;99.90;;;;;;5078673;28;20056;-65
2022/11/30 03:57:10;;;;;;;35.90;20.83;;;6.30;99.90;;;;;;5083181;28;20044;-65
2022/11/30 03:59:37;;;;;;;36.63;21.58;;;6.40;99.90;;;;;;5087500;28;20044;-64
2022/11/30 04:02:04;;;;;;;34.80;21.60;;;6.40;99.90;;;;;;5080267;28;20051;-64
2022/11/30 04:04:31;;;;;;;33.95;21.45;;;6.40;99.90;;;;;;5085015;28;20517;-63
2022/11/30 04:06:58;;;;;;;35.15;21.73;;;6.40;99.90;;;;;;5086345;28;20389;-64
2022/11/30 04:09:25;;;;;;;39.42;23.60;;;6.40;99.90;;;;;;5082564;28;20538;-64
2022/11/30 04:11:52;;;;;;;39.35;22.45;;;6.40;99.90;;;;;;5078548;28;20583;-65
2022/11/30 04:14:20;;;;;;;32.58;21.58;;;6.40;99.90;;;;;;5086326;28;20416;-65
2022/11/30 04:16:47;;;;;;;34.95;21.08;;;6.40;99.90;;;;;;5075357;28;20048;-65
2022/11/30 04:19:14;;;;;;;35.58;21.67;;;6.40;99.90;;;;;;5080332;28;20519;-64
2022/11/30 04:21:40;;;;;;;34.35;21.95;;;6.40;99.90;;;;;;5076134;28;20056;-64
2022/11/30 04:24:08;;;;;;;34.78;22.27;;;6.50;99.90;;;;;;5085318;28;20049;-64
2022/11/30 04:26:35;;;;;;;34.55;21.85;;;6.40;99.90;;;;;;5083426;28;20074;-64
2022/11/30 04:29:02;;;;;;;37.17;20.48;;;6.50;99.90;;;;;;5080382;28;20059;-64
2022/11/30 04:31:30;;;;;;;34.03;20.50;;;6.50;99.90;;;;;;5081398;28;20052;-64
2022/11/30 04:33:57;;;;;;;31.17;19.85;;;6.50;99.90;;;;;;5083007;28;20060;-64
2022/11/30 04:36:24;;;;;;;34.58;20.65;;;6.50;99.90;;;;;;5088272;28;20052;-64
2022/11/30 04:38:51;;;;;;;34.40;21.55;;;6.50;99.90;;;;;;5082667;28;20044;-65
2022/11/30 04:41:18;;;;;;;32.55;20.65;;;6.50;99.90;;;;;;5087442;28;20051;-65
2022/11/30 04:43:45;;;;;;;34.13;21.48;;;6.60;99.90;;;;;;5086406;28;20059;-64
2022/11/30 04:46:12;;;;;;;34.42;22.05;;;6.50;99.90;;;;;;5088093;28;20114;-65
2022/11/30 04:48:40;;;;;;;40.08;23.77;;;6.60;99.90;;;;;;5087838;28;20048;-65
2022/11/30 04:51:08;;;;;;;42.50;21.92;;;6.50;99.90;;;;;;5085702;28;20048;-65
2022/11/30 04:53:37;;;;;;;44.42;24.20;;;6.50;99.90;;;;;;5087278;28;20056;-65
2022/11/30 04:56:06;;;;;;;42.67;23.42;;;6.50;99.90;;;;;;5079861;28;20059;-65
2022/11/30 04:58:32;;;;;;;48.63;24.55;;;6.50;99.90;;;;;;5082617;28;20044;-65
2022/11/30 05:00:59;;;;;;;42.40;25.23;;;6.50;99.90;;;;;;5082867;28;20059;-65
2022/11/30 05:03:26;;;;;;;42.45;23.85;;;6.50;99.90;;;;;;5087233;28;20046;-65
2022/11/30 05:05:55;;;;;;;46.88;24.15;;;6.50;99.90;;;;;;5088481;28;20048;-64
2022/11/30 05:08:21;;;;;;;41.85;23.25;;;6.50;99.90;;;;;;5084545;28;20056;-64
2022/11/30 05:10:52;;;;;;;45.50;25.00;;;6.50;99.90;;;;;;5088375;28;20047;-64
2022/11/30 05:13:18;;;;;;;44.70;25.05;;;6.50;99.90;;;;;;5085141;28;20055;-65
2022/11/30 05:15:46;;;;;;;43.78;23.75;;;6.50;99.90;;;;;;5081437;28;20479;-65
2022/11/30 05:18:14;;;;;;;45.60;23.25;;;6.50;99.90;;;;;;5088583;28;20052;-64
2022/11/30 05:20:41;;;;;;;45.50;25.00;;;6.50;99.90;;;;;;5085783;28;20562;-65
2022/11/30 05:23:09;;;;;;;48.33;25.45;;;6.50;99.90;;;;;;5082425;28;20048;-65
2022/11/30 05:25:36;;;;;;;45.13;23.90;;;6.50;99.90;;;;;;5086644;28;20060;-65
2022/11/30 05:28:03;;;;;;;44.67;24.10;;;6.50;99.90;;;;;;5084595;28;20439;-65
2022/11/30 05:30:30;;;;;;;47.28;24.05;;;6.50;99.90;;;;;;5085093;28;20430;-66
2022/11/30 05:32:57;;;;;;;45.53;24.45;;;6.50;99.90;;;;;;5083852;28;20577;-65
2022/11/30 05:35:24;;;;;;;46.17;24.67;;;6.50;99.90;;;;;;5083256;28;20064;-65
2022/11/30 05:37:51;;;;;;;49.45;25.73;;;6.50;99.90;;;;;;5086248;28;20055;-65
2022/11/30 05:40:19;;;;;;;43.72;23.20;;;6.50;99.90;;;;;;5082249;28;20089;-65
2022/11/30 05:42:46;;;;;;;45.30;24.77;;;6.50;99.90;;;;;;5084937;28;20048;-65
2022/11/30 05:45:13;;;;;;;47.20;24.65;;;6.50;99.90;;;;;;5087873;28;20486;-66
2022/11/30 05:47:40;;;;;;;42.30;23.15;;;6.50;99.90;;;;;;5087535;28;20488;-65
2022/11/30 05:50:08;;;;;;;41.20;23.30;;;6.50;99.90;;;;;;5085596;28;20068;-65
2022/11/30 05:52:35;;;;;;;45.45;23.83;;;6.50;99.90;;;;;;5087031;28;20056;-64
2022/11/30 05:55:02;;;;;;;40.60;21.20;;;6.50;99.90;;;;;;5084615;28;20062;-65
2022/11/30 05:57:30;;;;;;;39.47;22.83;;;6.40;99.90;;;;;;5085814;28;20060;-65
2022/11/30 05:59:57;;;;;;;44.50;24.38;;;6.40;99.90;;;;;;5087289;28;20484;-65
2022/11/30 06:02:24;;;;;;;43.50;22.13;;;6.40;99.90;;;;;;5082385;28;20054;-65
2022/11/30 06:04:51;;;;;;;48.08;24.38;;;6.40;99.90;;;;;;5083188;28;20055;-65
2022/11/30 06:07:18;;;;;;;45.30;24.05;;;6.50;99.90;;;;;;5086367;28;20094;-66
2022/11/30 06:09:45;;;;;;;38.88;21.85;;;6.40;99.90;;;;;;5084830;28;20071;-65
2022/11/30 06:12:12;;;;;;;45.35;24.23;;;6.50;99.90;;;;;;5086768;28;20048;-65
2022/11/30 06:14:40;;;;;;;44.45;23.67;;;6.40;99.90;;;;;;5089097;28;20408;-65
2022/11/30 06:17:07;;;;;;;47.20;24.15;;;6.40;99.90;;;;;;5086010;28;20054;-65
2022/11/30 06:19:34;;;;;;;42.22;22.70;;;6.40;99.90;;;;;;5087399;28;20055;-64
2022/11/30 06:22:01;;;;;;;40.08;21.17;;;6.40;99.90;;;;;;5085538;28;20123;-64
2022/11/30 06:24:28;;;;;;;44.35;21.98;;;6.40;99.90;;;;;;5082101;28;20567;-64
2022/11/30 06:26:55;;;;;;;38.03;20.33;;;6.30;99.90;;;;;;5087294;28;20463;-64
2022/11/30 06:29:22;;;;;;;36.35;20.10;;;6.30;99.90;;;;;;5090310;28;20048;-64
2022/11/30 06:31:50;;;;;;;40.95;20.52;;;6.30;99.90;;;;;;5081419;28;20059;-64
2022/11/30 06:34:17;;;;;;;36.28;20.38;;;6.30;99.90;;;;;;5083349;28;20062;-64
2022/11/30 06:36:44;;;;;;;35.67;18.63;;;6.30;99.90;;;;;;5083392;28;20059;-64
2022/11/30 06:39:12;;;;;;;33.00;17.90;;;6.30;99.90;;;;;;5081428;28;20067;-64
2022/11/30 06:41:40;;;;;;;35.00;18.02;;;6.30;99.90;;;;;;5091622;28;20105;-63
2022/11/30 06:44:08;;;;;;;33.30;17.73;;;6.20;99.90;;;;;;5090779;28;20126;-63
2022/11/30 06:46:35;;;;;;;34.42;18.27;;;6.30;99.90;;;;;;5088790;28;20142;-62
2022/11/30 06:49:03;;;;;;;34.90;18.95;;;6.20;99.90;;;;;;5091599;28;20040;-62
2022/11/30 06:51:30;;;;;;;28.58;17.77;;;6.30;99.90;;;;;;5081667;28;20410;-63
2022/11/30 06:53:57;;;;;;;33.92;19.15;;;6.20;99.90;;;;;;5089268;28;20492;-64
2022/11/30 06:56:24;;;;;;;28.50;15.88;;;6.20;99.90;;;;;;5081087;28;20055;-64
2022/11/30 06:58:53;;;;;;;32.38;17.88;;;6.20;99.90;;;;;;5090332;28;20372;-64
2022/11/30 07:01:20;;;;;;;30.40;17.42;;;6.10;99.90;;;;;;5089412;28;20043;-64
2022/11/30 07:03:46;;;;;;;32.88;18.52;;;6.10;99.90;;;;;;5082730;28;20051;-64
2022/11/30 07:06:15;;;;;;;31.50;17.42;;;6.10;99.90;;;;;;5080437;28;20060;-64
2022/11/30 07:08:43;;;;;;;30.48;16.95;;;6.10;99.90;;;;;;5089291;28;20048;-65
2022/11/30 07:11:11;;;;;;;32.22;17.55;;;6.10;99.90;;;;;;5089495;28;20075;-63
2022/11/30 07:13:39;;;;;;;30.30;17.58;;;6.10;99.90;;;;;;5080342;28;20049;-63
2022/11/30 07:16:08;;;;;;;34.33;17.60;;;6.10;99.90;;;;;;5082929;28;20105;-63
2022/11/30 07:18:35;;;;;;;30.80;17.90;;;6.10;99.90;;;;;;5089554;28;20127;-63
2022/11/30 07:21:03;;;;;;;26.88;16.80;;;6.10;99.90;;;;;;5087182;28;20522;-63
2022/11/30 07:26:16;;;;;;;33.53;17.27;;;6.20;99.90;;;;;;5088682;28;20044;-63
2022/11/30 07:28:45;;;;;;;32.38;18.10;;;6.20;99.90;;;;;;5089596;28;20056;-62
2022/11/30 07:31:17;;;;;;;29.33;17.75;;;6.30;99.90;;;;;;5091798;28;20047;-63
2022/11/30 07:33:44;;;;;;;33.08;18.00;;;6.20;99.90;;;;;;5089704;28;20055;-63
2022/11/30 07:36:11;;;;;;;36.30;19.23;;;6.10;99.90;;;;;;5090030;28;20052;-63
2022/11/30 07:38:40;;;;;;;33.22;19.33;;;6.10;99.90;;;;;;5090396;28;20114;-63
2022/11/30 07:41:07;;;;;;;30.23;18.00;;;6.20;99.90;;;;;;5090767;28;20069;-63
2022/11/30 07:43:34;;;;;;;33.85;19.33;;;6.20;99.90;;;;;;5089781;28;20082;-64
2022/11/30 07:46:01;;;;;;;33.53;18.52;;;6.20;99.90;;;;;;5090499;28;20445;-63
2022/11/30 07:48:28;;;;;;;31.42;18.17;;;6.20;99.90;;;;;;5090854;28;20040;-64
2022/11/30 07:51:02;;;;;;;33.20;17.20;;;6.10;99.90;;;;;;5090634;28;20105;-65
2022/11/30 07:53:30;;;;;;;32.83;17.17;;;6.10;99.90;;;;;;5089827;28;20570;-65
2022/11/30 07:56:05;;;;;;;;;;;6.10;99.90;;;;;;5089554;28;20046;-65
2022/11/30 07:58:32;;;;;;;29.20;16.42;;;6.10;99.90;;;;;;5092030;28;19920;-65
2022/11/30 08:01:03;;;;;;;31.30;17.30;;;6.10;99.90;;;;;;5093673;28;20055;-65
2022/11/30 08:03:31;;;;;;;37.05;17.35;;;6.00;99.90;;;;;;5093226;28;20098;-65
2022/11/30 08:09:38;;;;;;;26.92;17.17;;;6.10;99.90;;;;;;5092818;28;20046;-65
2022/11/30 08:12:07;;;;;;;29.92;17.60;;;6.10;99.90;;;;;;5094607;28;20557;-65
2022/11/30 08:14:34;;;;;;;31.50;17.50;;;6.00;99.90;;;;;;5094794;28;20051;-65
2022/11/30 08:17:01;;;;;;;29.60;17.35;;;6.10;99.90;;;;;;5093045;28;20040;-65
2022/11/30 08:19:28;;;;;;;31.48;16.02;;;6.10;99.90;;;;;;5095206;28;20044;-65
2022/11/30 08:21:55;;;;;;;25.85;17.13;;;6.10;99.90;;;;;;5091689;28;20040;-65
2022/11/30 08:24:21;;;;;;;30.55;17.95;;;6.10;99.90;;;;;;5094614;28;20050;-65
2022/11/30 08:26:50;;;;;;;26.23;16.83;;;6.10;99.90;;;;;;5095358;28;20058;-65
2022/11/30 08:29:19;;;;;;;27.70;17.30;;;6.10;99.90;;;;;;5093501;28;20146;-65
2022/11/30 08:31:46;;;;;;;25.35;16.25;;;6.20;99.90;;;;;;5092898;28;20044;-66
2022/11/30 08:34:13;;;;;;;33.50;18.50;;;6.20;99.90;;;;;;5094040;28;20048;-65
2022/11/30 08:36:40;;;;;;;29.25;17.98;;;6.20;99.90;;;;;;5093696;28;20044;-67
2022/11/30 08:39:08;;;;;;;26.63;17.30;;;6.20;99.90;;;;;;5092725;28;20051;-65
2022/11/30 08:41:37;;;;;;;28.77;16.75;;;6.20;99.90;;;;;;5093636;28;20051;-65
2022/11/30 08:44:05;;;;;;;28.42;18.40;;;6.20;99.90;;;;;;5093136;28;20056;-64
2022/11/30 08:46:33;;;;;;;26.55;15.80;;;6.20;99.90;;;;;;5091053;28;20058;-64
2022/11/30 08:49:01;;;;;;;28.98;17.65;;;6.20;99.90;;;;;;5092601;28;20048;-65
2022/11/30 08:51:28;;;;;;;25.92;17.38;;;6.20;99.90;;;;;;5092887;28;20044;-65
2022/11/30 08:53:54;;;;;;;26.90;17.20;;;6.20;99.90;;;;;;5092886;28;20044;-65
2022/11/30 08:56:22;;;;;;;30.38;17.67;;;6.30;99.90;;;;;;5093182;28;20047;-64
2022/11/30 08:58:49;;;;;;;25.83;17.23;;;6.20;99.90;;;;;;5093866;28;20044;-65
2022/11/30 09:01:18;;;;;;;26.65;17.15;;;6.30;99.90;;;;;;5092435;28;21105;-64
2022/11/30 09:03:48;;;;;;;27.77;16.25;;;6.40;99.90;;;;;;5094280;28;20094;-65
2022/11/30 09:06:17;;;;;;;26.92;17.85;;;6.40;99.90;;;;;;5092690;28;20407;-65
2022/11/30 09:08:45;;;;;;;27.52;16.88;;;6.40;99.90;;;;;;5091248;28;20053;-64
2022/11/30 09:11:15;;;;;;;28.98;16.95;;;6.40;99.90;;;;;;5091544;28;20048;-64
2022/11/30 09:13:42;;;;;;;27.25;17.33;;;6.40;99.90;;;;;;5088104;28;20063;-65
2022/11/30 09:16:10;;;;;;;30.38;17.73;;;6.40;99.90;;;;;;5090958;28;20047;-64
2022/11/30 09:18:37;;;;;;;28.88;18.20;;;6.40;99.90;;;;;;5092888;28;20491;-64
2022/11/30 09:21:07;;;;;;;32.17;17.98;;;6.40;99.90;;;;;;5089902;28;20051;-64
2022/11/30 09:23:34;;;;;;;32.15;18.20;;;6.40;99.90;;;;;;5093703;28;20079;-65
2022/11/30 09:26:04;;;;;;;30.95;18.98;;;6.50;99.90;;;;;;5093889;28;20040;-64
2022/11/30 09:28:31;;;;;;;28.10;18.20;;;6.50;99.90;;;;;;5089543;28;20052;-65
2022/11/30 09:31:01;;;;;;;30.75;18.35;;;6.50;99.90;;;;;;5092815;28;20484;-65
2022/11/30 09:33:28;;;;;;;34.65;18.45;;;6.50;99.90;;;;;;5092509;28;20052;-65
2022/11/30 09:35:57;;;;;;;33.20;17.35;;;6.60;99.90;;;;;;5092567;28;20051;-65
2022/11/30 09:38:26;;;;;;;30.52;19.38;;;6.60;99.90;;;;;;5092038;28;20063;-64
2022/11/30 09:40:55;;;;;;;28.95;18.80;;;6.70;99.90;;;;;;5092983;28;20043;-65
2022/11/30 09:43:34;;;;;;;27.00;17.00;;;6.80;99.90;;;;;;5091998;28;20055;-65
2022/11/30 09:46:04;;;;;;;30.98;19.17;;;6.80;99.90;;;;;;5090721;28;20503;-64
2022/11/30 09:48:47;;;;;;;34.50;19.15;;;6.90;99.90;;;;;;5090842;28;20083;-65
2022/11/30 09:51:19;;;;;;;35.88;20.38;;;6.90;99.90;;;;;;5092144;28;20074;-64
2022/11/30 09:53:53;;;;;;;32.25;19.58;;;7.00;99.90;;;;;;5092023;28;20051;-65
2022/11/30 09:56:25;;;;;;;30.65;19.73;;;7.00;99.90;;;;;;5091464;28;20048;-65
2022/11/30 09:58:56;;;;;;;36.25;20.75;;;7.00;99.90;;;;;;5091945;28;20051;-65
2022/11/30 10:01:23;;;;;;;33.80;20.35;;;7.00;99.90;;;;;;5091674;28;20484;-65
2022/11/30 10:03:50;;;;;;;33.35;20.83;;;7.00;99.90;;;;;;5091037;28;20052;-65
2022/11/30 10:06:25;;;;;;;31.02;19.25;;;7.00;99.90;;;;;;5091823;28;20407;-65
2022/11/30 10:09:06;;;;;;;34.08;20.02;;;7.00;99.90;;;;;;5089333;28;20044;-65
2022/11/30 10:11:45;;;;;;;30.30;19.60;;;7.00;99.90;;;;;;5091168;28;20687;-65
2022/11/30 10:14:44;;;;;;;30.88;18.38;;;6.90;99.90;;;;;;5090586;28;20059;-65
2022/11/30 10:17:20;;;;;;;36.15;20.45;;;6.90;99.90;;;;;;5077385;28;20048;-65
2022/11/30 10:20:02;;;;;;;33.00;21.50;;;6.90;99.90;;;;;;5091488;28;20047;-65
2022/11/30 10:22:51;;;;;;;30.63;19.55;;;6.90;99.90;;;;;;5091295;28;20578;-64
2022/11/30 10:25:22;;;;;;;35.00;19.55;;;6.90;99.90;;;;;;5091682;28;20059;-63
2022/11/30 10:27:52;;;;;;;32.58;19.63;;;6.90;99.90;;;;;;5091347;28;20051;-63
2022/11/30 10:30:22;;;;;;;33.90;20.13;;;6.90;99.90;;;;;;5091883;28;20040;-63
2022/11/30 10:32:52;;;;;;;30.23;19.80;;;6.90;99.90;;;;;;5091241;28;20491;-65
2022/11/30 10:35:33;;;;;;;35.40;20.80;;;6.90;99.90;;;;;;5091393;28;20048;-65
2022/11/30 10:38:04;;;;;;;33.17;19.95;;;6.90;99.90;;;;;;5089715;28;20047;-65
2022/11/30 10:40:38;;;;;;;34.35;20.65;;;6.90;99.90;;;;;;5090955;28;20491;-64
2022/11/30 10:43:17;;;;;;;33.28;19.30;;;6.90;99.90;;;;;;5090642;28;20060;-65
2022/11/30 10:45:48;;;;;;;33.75;20.83;;;6.90;99.90;;;;;;5091704;28;20047;-65
2022/11/30 10:48:20;;;;;;;35.65;21.67;;;7.00;99.90;;;;;;5092125;28;20047;-65
2022/11/30 10:50:47;;;;;;;30.17;19.45;;;6.90;99.90;;;;;;5090814;28;20488;-65
2022/11/30 10:53:14;;;;;;;33.10;20.67;;;7.00;99.90;;;;;;5089683;28;20056;-65
2022/11/30 10:55:54;;;;;;;35.08;20.98;;;7.00;99.90;;;;;;5092309;28;20047;-66
2022/11/30 10:58:27;;;;;;;34.88;20.98;;;7.00;99.90;;;;;;5090424;28;20055;-65
2022/11/30 11:01:01;;;;;;;41.25;21.95;;;7.10;99.90;;;;;;5091788;28;20039;-65
2022/11/30 11:03:29;;;;;;;32.95;19.33;;;7.10;99.90;;;;;;5091973;28;20044;-65
2022/11/30 11:06:15;;;;;;;28.27;18.67;;;7.20;99.90;;;;;;5090217;28;20048;-65
2022/11/30 11:08:44;;;;;;;33.60;20.08;;;7.20;99.90;;;;;;5087798;28;20051;-65
2022/11/30 11:11:35;;;;;;;30.60;19.75;;;7.20;99.90;;;;;;5090257;28;20044;-66
2022/11/30 11:14:17;;;;;;;32.60;20.27;;;7.20;99.90;;;;;;5089099;28;20044;-66
2022/11/30 11:16:53;;;;;;;31.35;19.75;;;7.20;99.90;;;;;;5089578;28;20495;-65
2022/11/30 11:19:30;;;;;;;32.83;20.48;;;7.20;99.90;;;;;;5091196;28;20063;-63
2022/11/30 11:21:57;;;;;;;32.95;19.98;;;7.30;99.90;;;;;;5090408;28;20044;-64
2022/11/30 11:24:27;;;;;;;32.60;19.17;;;7.30;99.90;;;;;;5091090;28;20557;-64
2022/11/30 11:26:57;;;;;;;35.17;21.17;;;7.40;99.90;;;;;;5089400;28;20048;-65
2022/11/30 11:29:33;;;;;;;37.30;20.67;;;7.40;99.90;;;;;;5090963;28;20658;-65
2022/11/30 11:32:18;;;;;;;34.67;21.92;;;7.40;99.90;;;;;;5090070;28;20098;-65
2022/11/30 11:34:46;;;;;;;32.92;20.40;;;7.40;99.90;;;;;;5093208;28;20514;-65
2022/11/30 11:37:20;;;;;;;35.22;20.98;;;7.40;99.90;;;;;;5095695;28;20507;-65
2022/11/30 11:40:05;;;;;;;39.60;22.63;;;7.40;99.90;;;;;;5094615;28;20047;-65
2022/11/30 11:42:37;;;;;;;33.13;21.33;;;7.40;99.90;;;;;;5080632;28;20067;-65
2022/11/30 11:45:05;;;;;;;38.70;21.30;;;7.40;99.90;;;;;;5082612;28;20496;-65
2022/11/30 11:47:40;;;;;;;35.53;22.35;;;7.30;99.90;;;;;;5082879;28;20052;-65
2022/11/30 11:50:22;;;;;;;36.33;22.40;;;7.30;99.90;;;;;;5089695;28;20090;-65
2022/11/30 11:52:49;;;;;;;32.20;20.10;;;7.40;99.90;;;;;;5089342;28;20048;-65
2022/11/30 11:55:19;;;;;;;32.20;20.40;;;7.40;99.90;;;;;;5080747;28;20056;-65
2022/11/30 11:57:52;;;;;;;29.63;19.73;;;7.40;99.90;;;;;;5086318;28;20044;-65
2022/11/30 12:00:22;;;;;;;30.55;19.25;;;7.40;99.90;;;;;;5082921;28;20159;-65
2022/11/30 12:02:56;;;;;;;36.45;21.45;;;7.50;99.90;;;;;;5086724;28;20056;-65
2022/11/30 12:05:28;;;;;;;33.28;21.00;;;7.40;99.90;;;;;;5089311;28;20094;-64
2022/11/30 12:08:07;;;;;;;33.20;21.35;;;7.40;99.90;;;;;;5087819;28;20515;-64
2022/11/30 12:10:39;;;;;;;30.13;19.77;;;7.50;99.90;;;;;;5091110;28;20381;-65
2022/11/30 12:13:14;;;;;;;33.40;20.30;;;7.40;99.90;;;;;;5091957;28;20063;-64
2022/11/30 12:15:51;;;;;;;34.17;20.95;;;7.40;99.90;;;;;;5087824;28;20066;-64
2022/11/30 12:18:21;;;;;;;32.47;20.98;;;7.40;99.90;;;;;;5088945;28;20050;-65
2022/11/30 12:20:54;;;;;;;31.83;20.58;;;7.40;99.90;;;;;;5093979;28;20403;-64
2022/11/30 12:23:48;;;;;;;34.85;21.27;;;7.40;99.90;;;;;;5094312;28;20047;-64
2022/11/30 12:26:24;;;;;;;33.38;21.80;;;7.40;99.90;;;;;;5091658;28;20051;-65
2022/11/30 12:29:18;;;;;;;31.90;20.42;;;7.40;99.90;;;;;;5093918;28;20044;-64
2022/11/30 12:31:57;;;;;;;34.17;19.98;;;7.30;99.90;;;;;;5090382;28;20049;-65
2022/11/30 12:34:35;;;;;;;31.02;21.50;;;7.30;99.90;;;;;;5093498;28;20518;-64
2022/11/30 12:37:13;;;;;;;31.33;20.60;;;7.30;99.90;;;;;;5093254;28;20052;-65
2022/11/30 12:39:50;;;;;;;34.35;23.17;;;7.20;99.90;;;;;;5094585;28;20399;-65
2022/11/30 12:42:25;;;;;;;37.13;23.85;;;7.20;99.90;;;;;;5092949;28;20047;-64
2022/11/30 12:45:00;;;;;;;39.20;22.95;;;7.30;99.90;;;;;;5092792;28;20078;-64
2022/11/30 12:47:49;;;;;;;36.72;23.00;;;7.20;99.90;;;;;;5093520;28;20048;-65
2022/11/30 12:50:39;;;;;;;37.10;22.10;;;7.20;99.90;;;;;;5092006;28;20066;-64
2022/11/30 12:53:16;;;;;;;37.95;23.30;;;7.20;99.90;;;;;;5091597;28;20097;-65
2022/11/30 12:55:52;;;;;;;37.53;22.08;;;7.20;99.90;;;;;;5091064;28;20545;-65
2022/11/30 12:58:26;;;;;;;39.97;23.05;;;7.20;99.90;;;;;;5090414;28;20050;-65